CheckWX is a tool to help pilots better visualize weather data.  It is not intended as a substitute for an official pre-flight weather briefing.

07:22:01 UTC

KRDM TAF
Roberts Field Airport
Redmond, Oregon, USA
KRDM 210534Z 2106/2206 17007KT P6SM FEW050 SCT250 FM212100 31008KT P6SM SCT250 FM220500 17007KT P6SM SCT250

Sep-21@
06:00 UTC

Sep-21 @ 06:00 UTC

Sep-21@
21:00 UTC

Sep-21 @ 21:00 UTC

KRDM 210534Z 2106/2206 17007KT P6SM FEW050 SCT250
Wind
  • 170° at 7 KTS
Cloud Levels
  • Few at 5,000' AGL
  • Scattered at 25,000' AGL

Sep-21@
21:00 UTC

Sep-21 @ 21:00 UTC

Sep-22@
05:00 UTC

Sep-22 @ 05:00 UTC

FM212100 31008KT P6SM SCT250

From

From Standard forecast or significant change

Wind
  • 310° at 8 KTS
Cloud Levels
  • Scattered at 25,000' AGL

Sep-22@
05:00 UTC

Sep-22 @ 05:00 UTC

Sep-22@
06:00 UTC

Sep-22 @ 06:00 UTC

FM220500 17007KT P6SM SCT250

From

From Standard forecast or significant change

Wind
  • 170° at 7 KTS
Cloud Levels
  • Scattered at 25,000' AGL